sensor_id;sensor_type;location;lat;lon;timestamp;temperature;humidity
33476;DHT22;19814;48.224;11.422;2023-04-01T00:01:35;8.50;99.90
33476;DHT22;19814;48.224;11.422;2023-04-01T00:04:01;8.40;99.90
33476;DHT22;19814;48.224;11.422;2023-04-01T00:06:27;8.50;99.90
33476;DHT22;19814;48.224;11.422;2023-04-01T00:08:53;8.50;99.90
33476;DHT22;19814;48.224;11.422;2023-04-01T00:11:19;8.40;99.90
33476;DHT22;19814;48.224;11.422;2023-04-01T00:13:45;8.40;99.90
33476;DHT22;19814;48.224;11.422;2023-04-01T00:16:11;8.40;99.90
33476;DHT22;19814;48.224;11.422;2023-04-01T00:18:37;8.30;99.90
33476;DHT22;19814;48.224;11.422;2023-04-01T00:21:03;8.30;99.90
33476;DHT22;19814;48.224;11.422;2023-04-01T00:23:28;8.30;99.90
33476;DHT22;19814;48.224;11.422;2023-04-01T00:25:54;8.30;99.90
33476;DHT22;19814;48.224;11.422;2023-04-01T00:28:20;8.30;99.90
33476;DHT22;19814;48.224;11.422;2023-04-01T00:30:46;8.30;99.90
33476;DHT22;19814;48.224;11.422;2023-04-01T00:33:12;8.30;99.90
33476;DHT22;19814;48.224;11.422;2023-04-01T00:35:38;8.30;99.90
33476;DHT22;19814;48.224;11.422;2023-04-01T00:38:04;8.30;99.90
33476;DHT22;19814;48.224;11.422;2023-04-01T00:40:34;8.30;99.90
33476;DHT22;19814;48.224;11.422;2023-04-01T00:43:01;8.30;99.90
33476;DHT22;19814;48.224;11.422;2023-04-01T00:45:39;8.20;99.90
33476;DHT22;19814;48.224;11.422;2023-04-01T00:50:48;8.20;99.90
33476;DHT22;19814;48.224;11.422;2023-04-01T00:53:16;8.20;99.90
33476;DHT22;19814;48.224;11.422;2023-04-01T00:55:49;8.30;99.90
33476;DHT22;19814;48.224;11.422;2023-04-01T00:58:17;8.30;99.90
33476;DHT22;19814;48.224;11.422;2023-04-01T01:00:46;8.20;99.90
33476;DHT22;19814;48.224;11.422;2023-04-01T01:03:12;8.30;99.90
33476;DHT22;19814;48.224;11.422;2023-04-01T01:11:20;8.30;99.90
33476;DHT22;19814;48.224;11.422;2023-04-01T01:14:03;8.30;99.90
33476;DHT22;19814;48.224;11.422;2023-04-01T01:16:39;8.30;99.90
33476;DHT22;19814;48.224;11.422;2023-04-01T01:22:36;8.40;99.90
33476;DHT22;19814;48.224;11.422;2023-04-01T01:27:41;8.30;99.90
33476;DHT22;19814;48.224;11.422;2023-04-01T01:31:15;8.20;99.90
33476;DHT22;19814;48.224;11.422;2023-04-01T01:33:46;8.20;99.90
33476;DHT22;19814;48.224;11.422;2023-04-01T01:36:06;8.20;99.90
33476;DHT22;19814;48.224;11.422;2023-04-01T01:38:35;8.20;99.90
33476;DHT22;19814;48.224;11.422;2023-04-01T01:41:03;8.20;99.90
33476;DHT22;19814;48.224;11.422;2023-04-01T01:43:42;8.20;99.90
33476;DHT22;19814;48.224;11.422;2023-04-01T01:46:14;8.20;99.90
33476;DHT22;19814;48.224;11.422;2023-04-01T01:48:42;8.20;99.90
33476;DHT22;19814;48.224;11.422;2023-04-01T01:51:09;8.20;99.90
33476;DHT22;19814;48.224;11.422;2023-04-01T01:53:35;8.20;99.90
33476;DHT22;19814;48.224;11.422;2023-04-01T01:56:01;8.20;99.90
33476;DHT22;19814;48.224;11.422;2023-04-01T01:58:34;8.20;99.90
33476;DHT22;19814;48.224;11.422;2023-04-01T02:01:07;8.20;99.90
33476;DHT22;19814;48.224;11.422;2023-04-01T02:03:36;8.20;99.90
33476;DHT22;19814;48.224;11.422;2023-04-01T02:06:05;8.20;99.90
33476;DHT22;19814;48.224;11.422;2023-04-01T02:08:41;8.20;99.90
33476;DHT22;19814;48.224;11.422;2023-04-01T02:11:13;8.20;99.90
33476;DHT22;19814;48.224;11.422;2023-04-01T02:13:50;8.20;99.90
33476;DHT22;19814;48.224;11.422;2023-04-01T02:16:31;8.20;99.90
33476;DHT22;19814;48.224;11.422;2023-04-01T02:18:58;8.20;99.90
33476;DHT22;19814;48.224;11.422;2023-04-01T02:21:26;8.20;99.90
33476;DHT22;19814;48.224;11.422;2023-04-01T02:23:53;8.20;99.90
33476;DHT22;19814;48.224;11.422;2023-04-01T02:26:20;8.20;99.90
33476;DHT22;19814;48.224;11.422;2023-04-01T02:28:46;8.30;99.90
33476;DHT22;19814;48.224;11.422;2023-04-01T02:31:14;8.30;99.90
33476;DHT22;19814;48.224;11.422;2023-04-01T02:33:40;8.20;99.90
33476;DHT22;19814;48.224;11.422;2023-04-01T02:36:11;8.20;99.90
33476;DHT22;19814;48.224;11.422;2023-04-01T02:38:37;8.10;99.90
33476;DHT22;19814;48.224;11.422;2023-04-01T02:41:03;8.20;99.90
33476;DHT22;19814;48.224;11.422;2023-04-01T02:43:30;8.20;99.90
33476;DHT22;19814;48.224;11.422;2023-04-01T02:45:56;8.20;99.90
33476;DHT22;19814;48.224;11.422;2023-04-01T02:48:21;8.10;99.90
33476;DHT22;19814;48.224;11.422;2023-04-01T02:50:47;8.10;99.90
33476;DHT22;19814;48.224;11.422;2023-04-01T02:53:12;8.10;99.90
33476;DHT22;19814;48.224;11.422;2023-04-01T02:55:38;8.10;99.90
33476;DHT22;19814;48.224;11.422;2023-04-01T02:58:03;8.10;99.90
33476;DHT22;19814;48.224;11.422;2023-04-01T03:00:29;8.10;99.90
33476;DHT22;19814;48.224;11.422;2023-04-01T03:02:55;8.10;99.90
33476;DHT22;19814;48.224;11.422;2023-04-01T03:05:22;8.10;99.90
33476;DHT22;19814;48.224;11.422;2023-04-01T03:07:47;8.10;99.90
33476;DHT22;19814;48.224;11.422;2023-04-01T03:10:13;8.20;99.90
33476;DHT22;19814;48.224;11.422;2023-04-01T03:12:39;8.10;99.90
33476;DHT22;19814;48.224;11.422;2023-04-01T03:15:05;8.20;99.90
33476;DHT22;19814;48.224;11.422;2023-04-01T03:17:31;8.20;99.90
33476;DHT22;19814;48.224;11.422;2023-04-01T03:19:56;8.10;99.90
33476;DHT22;19814;48.224;11.422;2023-04-01T03:22:22;8.00;99.90
33476;DHT22;19814;48.224;11.422;2023-04-01T03:24:48;8.00;99.90
33476;DHT22;19814;48.224;11.422;2023-04-01T03:27:13;7.90;99.90
33476;DHT22;19814;48.224;11.422;2023-04-01T03:29:39;7.80;99.90
33476;DHT22;19814;48.224;11.422;2023-04-01T03:32:05;7.80;99.90
33476;DHT22;19814;48.224;11.422;2023-04-01T03:34:31;7.70;99.90
33476;DHT22;19814;48.224;11.422;2023-04-01T03:36:57;7.80;99.90
33476;DHT22;19814;48.224;11.422;2023-04-01T03:39:23;7.80;99.90
33476;DHT22;19814;48.224;11.422;2023-04-01T03:41:48;7.70;99.90
33476;DHT22;19814;48.224;11.422;2023-04-01T03:44:14;7.70;99.90
33476;DHT22;19814;48.224;11.422;2023-04-01T03:46:39;7.70;99.90
33476;DHT22;19814;48.224;11.422;2023-04-01T03:49:11;7.60;99.90
33476;DHT22;19814;48.224;11.422;2023-04-01T03:51:41;7.60;99.90
33476;DHT22;19814;48.224;11.422;2023-04-01T03:54:07;7.70;99.90
33476;DHT22;19814;48.224;11.422;2023-04-01T03:56:33;7.60;99.90
33476;DHT22;19814;48.224;11.422;2023-04-01T03:59:01;7.60;99.90
33476;DHT22;19814;48.224;11.422;2023-04-01T04:01:27;7.70;99.90
33476;DHT22;19814;48.224;11.422;2023-04-01T04:03:52;7.60;99.90
33476;DHT22;19814;48.224;11.422;2023-04-01T04:06:19;7.60;99.90
33476;DHT22;19814;48.224;11.422;2023-04-01T04:08:45;7.60;99.90
33476;DHT22;19814;48.224;11.422;2023-04-01T04:11:10;7.50;99.90
33476;DHT22;19814;48.224;11.422;2023-04-01T04:13:36;7.60;99.90
33476;DHT22;19814;48.224;11.422;2023-04-01T04:16:03;7.60;99.90
33476;DHT22;19814;48.224;11.422;2023-04-01T04:18:29;7.60;99.90
33476;DHT22;19814;48.224;11.422;2023-04-01T04:20:54;7.70;99.90
33476;DHT22;19814;48.224;11.422;2023-04-01T04:23:20;7.70;99.90
33476;DHT22;19814;48.224;11.422;2023-04-01T04:26:04;7.70;99.90
33476;DHT22;19814;48.224;11.422;2023-04-01T04:28:30;7.70;99.90
33476;DHT22;19814;48.224;11.422;2023-04-01T04:30:56;7.80;99.90
33476;DHT22;19814;48.224;11.422;2023-04-01T04:33:22;7.80;99.90
33476;DHT22;19814;48.224;11.422;2023-04-01T04:35:48;7.80;99.90
33476;DHT22;19814;48.224;11.422;2023-04-01T04:38:14;7.80;99.90
33476;DHT22;19814;48.224;11.422;2023-04-01T04:40:40;7.90;99.90
33476;DHT22;19814;48.224;11.422;2023-04-01T04:43:06;7.90;99.90
33476;DHT22;19814;48.224;11.422;2023-04-01T04:45:32;7.90;99.90
33476;DHT22;19814;48.224;11.422;2023-04-01T04:47:58;7.90;99.90
33476;DHT22;19814;48.224;11.422;2023-04-01T04:50:24;7.90;99.90
33476;DHT22;19814;48.224;11.422;2023-04-01T04:52:51;7.90;99.90
33476;DHT22;19814;48.224;11.422;2023-04-01T04:55:16;8.00;99.90
33476;DHT22;19814;48.224;11.422;2023-04-01T04:57:42;8.00;99.90
33476;DHT22;19814;48.224;11.422;2023-04-01T05:00:08;8.00;99.90
33476;DHT22;19814;48.224;11.422;2023-04-01T05:02:35;8.00;99.90
33476;DHT22;19814;48.224;11.422;2023-04-01T05:05:01;8.10;99.90
33476;DHT22;19814;48.224;11.422;2023-04-01T05:07:26;8.10;99.90
33476;DHT22;19814;48.224;11.422;2023-04-01T05:09:52;8.10;99.90
33476;DHT22;19814;48.224;11.422;2023-04-01T05:12:17;8.20;99.90
33476;DHT22;19814;48.224;11.422;2023-04-01T05:14:43;8.20;99.90
33476;DHT22;19814;48.224;11.422;2023-04-01T05:17:12;8.20;99.90
33476;DHT22;19814;48.224;11.422;2023-04-01T05:19:40;8.20;99.90
33476;DHT22;19814;48.224;11.422;2023-04-01T05:22:06;8.20;99.90
33476;DHT22;19814;48.224;11.422;2023-04-01T05:24:32;8.30;99.90
33476;DHT22;19814;48.224;11.422;2023-04-01T05:26:58;8.30;99.90
33476;DHT22;19814;48.224;11.422;2023-04-01T05:29:25;8.30;99.90
33476;DHT22;19814;48.224;11.422;2023-04-01T05:31:51;8.30;99.90
33476;DHT22;19814;48.224;11.422;2023-04-01T05:34:17;8.40;99.90
33476;DHT22;19814;48.224;11.422;2023-04-01T05:36:43;8.40;99.90
33476;DHT22;19814;48.224;11.422;2023-04-01T05:39:08;8.40;99.90
33476;DHT22;19814;48.224;11.422;2023-04-01T05:41:37;8.40;99.90
33476;DHT22;19814;48.224;11.422;2023-04-01T05:44:04;8.40;99.90
33476;DHT22;19814;48.224;11.422;2023-04-01T05:46:30;8.40;99.90
33476;DHT22;19814;48.224;11.422;2023-04-01T05:48:56;8.50;99.90
33476;DHT22;19814;48.224;11.422;2023-04-01T05:51:22;8.50;99.90
33476;DHT22;19814;48.224;11.422;2023-04-01T05:53:47;8.60;99.90
33476;DHT22;19814;48.224;11.422;2023-04-01T05:56:13;8.70;99.90
33476;DHT22;19814;48.224;11.422;2023-04-01T05:58:39;8.70;99.90
33476;DHT22;19814;48.224;11.422;2023-04-01T06:01:06;8.70;99.90
33476;DHT22;19814;48.224;11.422;2023-04-01T06:03:33;8.70;99.90
33476;DHT22;19814;48.224;11.422;2023-04-01T06:05:58;8.60;99.90
33476;DHT22;19814;48.224;11.422;2023-04-01T06:08:26;8.60;99.90
33476;DHT22;19814;48.224;11.422;2023-04-01T06:17:17;8.80;99.90
33476;DHT22;19814;48.224;11.422;2023-04-01T06:19:42;8.90;99.90
33476;DHT22;19814;48.224;11.422;2023-04-01T06:22:35;9.00;99.90
33476;DHT22;19814;48.224;11.422;2023-04-01T06:36:02;9.70;99.80
33476;DHT22;19814;48.224;11.422;2023-04-01T06:38:44;9.60;99.60
33476;DHT22;19814;48.224;11.422;2023-04-01T06:44:11;9.80;99.60
33476;DHT22;19814;48.224;11.422;2023-04-01T06:46:47;9.80;98.70
33476;DHT22;19814;48.224;11.422;2023-04-01T06:52:20;10.20;98.80
33476;DHT22;19814;48.224;11.422;2023-04-01T06:54:51;10.20;97.90
33476;DHT22;19814;48.224;11.422;2023-04-01T06:59:50;10.30;98.30
33476;DHT22;19814;48.224;11.422;2023-04-01T07:02:25;10.20;97.90
33476;DHT22;19814;48.224;11.422;2023-04-01T07:04:56;10.30;98.10
33476;DHT22;19814;48.224;11.422;2023-04-01T07:07:44;10.40;98.20
33476;DHT22;19814;48.224;11.422;2023-04-01T07:10:31;10.50;97.90
33476;DHT22;19814;48.224;11.422;2023-04-01T07:13:00;10.50;97.40
33476;DHT22;19814;48.224;11.422;2023-04-01T07:15:36;10.30;97.30
33476;DHT22;19814;48.224;11.422;2023-04-01T07:18:09;10.30;97.30
33476;DHT22;19814;48.224;11.422;2023-04-01T07:20:37;10.40;98.00
33476;DHT22;19814;48.224;11.422;2023-04-01T07:23:10;10.40;97.50
33476;DHT22;19814;48.224;11.422;2023-04-01T07:25:41;10.40;97.30
33476;DHT22;19814;48.224;11.422;2023-04-01T07:28:13;10.40;97.40
33476;DHT22;19814;48.224;11.422;2023-04-01T07:31:05;11.00;97.40
33476;DHT22;19814;48.224;11.422;2023-04-01T07:33:38;11.60;95.80
33476;DHT22;19814;48.224;11.422;2023-04-01T07:36:26;11.50;95.60
33476;DHT22;19814;48.224;11.422;2023-04-01T07:41:37;11.60;96.30
33476;DHT22;19814;48.224;11.422;2023-04-01T07:49:49;11.10;96.10
33476;DHT22;19814;48.224;11.422;2023-04-01T07:57:49;11.00;95.40
33476;DHT22;19814;48.224;11.422;2023-04-01T08:00:27;10.90;95.90
33476;DHT22;19814;48.224;11.422;2023-04-01T08:11:32;11.60;96.10
33476;DHT22;19814;48.224;11.422;2023-04-01T08:22:45;12.20;94.00
33476;DHT22;19814;48.224;11.422;2023-04-01T08:25:19;12.20;93.70
33476;DHT22;19814;48.224;11.422;2023-04-01T08:27:53;12.80;92.10
33476;DHT22;19814;48.224;11.422;2023-04-01T08:30:35;13.50;92.00
33476;DHT22;19814;48.224;11.422;2023-04-01T08:36:14;14.80;90.50
33476;DHT22;19814;48.224;11.422;2023-04-01T08:38:49;15.10;88.30
33476;DHT22;19814;48.224;11.422;2023-04-01T08:53:00;15.00;86.80
33476;DHT22;19814;48.224;11.422;2023-04-01T09:18:05;14.20;85.20
33476;DHT22;19814;48.224;11.422;2023-04-01T09:26:07;13.50;89.10
33476;DHT22;19814;48.224;11.422;2023-04-01T09:36:47;13.50;89.70
33476;DHT22;19814;48.224;11.422;2023-04-01T09:39:36;13.60;90.10
33476;DHT22;19814;48.224;11.422;2023-04-01T09:48:19;14.60;86.00
33476;DHT22;19814;48.224;11.422;2023-04-01T09:50:52;14.20;87.10
33476;DHT22;19814;48.224;11.422;2023-04-01T09:56:12;13.50;87.60
33476;DHT22;19814;48.224;11.422;2023-04-01T10:07:36;13.20;89.80
33476;DHT22;19814;48.224;11.422;2023-04-01T10:12:53;12.90;89.80
33476;DHT22;19814;48.224;11.422;2023-04-01T10:15:50;13.20;91.70
33476;DHT22;19814;48.224;11.422;2023-04-01T10:21:34;13.70;90.10
33476;DHT22;19814;48.224;11.422;2023-04-01T10:27:29;14.10;87.50
33476;DHT22;19814;48.224;11.422;2023-04-01T10:36:34;14.10;90.00
33476;DHT22;19814;48.224;11.422;2023-04-01T11:05:20;12.10;94.40
33476;DHT22;19814;48.224;11.422;2023-04-01T11:22:14;12.30;94.50
33476;DHT22;19814;48.224;11.422;2023-04-01T11:27:36;12.00;94.60
33476;DHT22;19814;48.224;11.422;2023-04-01T11:32:54;11.80;96.40
33476;DHT22;19814;48.224;11.422;2023-04-01T11:38:53;11.50;98.80
33476;DHT22;19814;48.224;11.422;2023-04-01T11:41:26;11.40;99.50
33476;DHT22;19814;48.224;11.422;2023-04-01T11:58:19;10.50;99.90
33476;DHT22;19814;48.224;11.422;2023-04-01T12:01:08;10.20;99.90
33476;DHT22;19814;48.224;11.422;2023-04-01T12:15:03;10.30;99.90
33476;DHT22;19814;48.224;11.422;2023-04-01T12:17:51;10.30;99.90
33476;DHT22;19814;48.224;11.422;2023-04-01T12:20:36;10.10;99.90
33476;DHT22;19814;48.224;11.422;2023-04-01T12:28:44;10.10;99.90
33476;DHT22;19814;48.224;11.422;2023-04-01T12:36:51;10.20;99.90
33476;DHT22;19814;48.224;11.422;2023-04-01T12:39:44;10.20;99.90
33476;DHT22;19814;48.224;11.422;2023-04-01T12:45:34;10.20;99.90
33476;DHT22;19814;48.224;11.422;2023-04-01T12:49:04;10.10;99.90
33476;DHT22;19814;48.224;11.422;2023-04-01T12:51:30;10.20;99.90
33476;DHT22;19814;48.224;11.422;2023-04-01T12:57:08;10.40;99.90
33476;DHT22;19814;48.224;11.422;2023-04-01T13:02:54;10.40;99.90
33476;DHT22;19814;48.224;11.422;2023-04-01T13:11:32;10.40;99.90
33476;DHT22;19814;48.224;11.422;2023-04-01T13:14:25;10.30;99.90
33476;DHT22;19814;48.224;11.422;2023-04-01T13:17:10;10.40;99.90
33476;DHT22;19814;48.224;11.422;2023-04-01T13:20:19;10.40;99.90
33476;DHT22;19814;48.224;11.422;2023-04-01T13:23:06;10.40;99.90
33476;DHT22;19814;48.224;11.422;2023-04-01T13:26:21;10.40;99.90
33476;DHT22;19814;48.224;11.422;2023-04-01T13:28:24;10.40;99.90
33476;DHT22;19814;48.224;11.422;2023-04-01T13:33:34;10.30;99.90
33476;DHT22;19814;48.224;11.422;2023-04-01T13:44:11;10.60;99.90
33476;DHT22;19814;48.224;11.422;2023-04-01T13:49:46;10.60;99.90
33476;DHT22;19814;48.224;11.422;2023-04-01T13:58:20;10.60;99.90
33476;DHT22;19814;48.224;11.422;2023-04-01T14:01:12;10.70;99.90
33476;DHT22;19814;48.224;11.422;2023-04-01T14:04:15;10.80;99.90
33476;DHT22;19814;48.224;11.422;2023-04-01T14:07:18;10.90;99.90
33476;DHT22;19814;48.224;11.422;2023-04-01T14:13:09;11.00;99.90
33476;DHT22;19814;48.224;11.422;2023-04-01T14:24:19;11.20;99.90
33476;DHT22;19814;48.224;11.422;2023-04-01T14:30:02;11.50;99.90
33476;DHT22;19814;48.224;11.422;2023-04-01T14:32:56;11.60;99.90
33476;DHT22;19814;48.224;11.422;2023-04-01T14:35:38;11.50;99.30
33476;DHT22;19814;48.224;11.422;2023-04-01T14:51:56;11.30;99.90
33476;DHT22;19814;48.224;11.422;2023-04-01T14:54:35;11.30;99.90
33476;DHT22;19814;48.224;11.422;2023-04-01T14:57:09;11.30;99.90
33476;DHT22;19814;48.224;11.422;2023-04-01T14:59:40;11.50;99.90
33476;DHT22;19814;48.224;11.422;2023-04-01T15:02:37;11.40;99.90
33476;DHT22;19814;48.224;11.422;2023-04-01T15:08:15;11.20;99.90
33476;DHT22;19814;48.224;11.422;2023-04-01T15:22:08;11.10;99.90
33476;DHT22;19814;48.224;11.422;2023-04-01T15:24:58;11.20;99.90
33476;DHT22;19814;48.224;11.422;2023-04-01T15:30:33;11.30;99.90
33476;DHT22;19814;48.224;11.422;2023-04-01T15:38:49;11.10;99.60
33476;DHT22;19814;48.224;11.422;2023-04-01T15:50:12;10.90;99.70
33476;DHT22;19814;48.224;11.422;2023-04-01T15:52:43;10.90;99.50
33476;DHT22;19814;48.224;11.422;2023-04-01T15:55:37;11.00;99.10
33476;DHT22;19814;48.224;11.422;2023-04-01T15:58:11;10.90;99.10
33476;DHT22;19814;48.224;11.422;2023-04-01T16:06:49;10.90;98.60
33476;DHT22;19814;48.224;11.422;2023-04-01T16:09:43;11.00;99.00
33476;DHT22;19814;48.224;11.422;2023-04-01T16:12:40;11.00;98.00
33476;DHT22;19814;48.224;11.422;2023-04-01T16:15:34;10.90;97.90
33476;DHT22;19814;48.224;11.422;2023-04-01T16:21:21;10.80;98.20
33476;DHT22;19814;48.224;11.422;2023-04-01T16:24:10;10.80;98.60
33476;DHT22;19814;48.224;11.422;2023-04-01T16:26:58;10.80;98.20
33476;DHT22;19814;48.224;11.422;2023-04-01T16:29:52;10.80;97.50
33476;DHT22;19814;48.224;11.422;2023-04-01T16:35:53;10.60;98.40
33476;DHT22;19814;48.224;11.422;2023-04-01T16:41:04;10.50;98.60
33476;DHT22;19814;48.224;11.422;2023-04-01T16:55:14;10.50;98.40
33476;DHT22;19814;48.224;11.422;2023-04-01T16:57:21;10.40;98.70
33476;DHT22;19814;48.224;11.422;2023-04-01T17:00:25;10.40;98.30
33476;DHT22;19814;48.224;11.422;2023-04-01T17:03:13;10.40;98.30
33476;DHT22;19814;48.224;11.422;2023-04-01T17:11:24;10.30;98.60
33476;DHT22;19814;48.224;11.422;2023-04-01T17:17:42;10.20;97.80
33476;DHT22;19814;48.224;11.422;2023-04-01T17:22:34;10.10;98.10
33476;DHT22;19814;48.224;11.422;2023-04-01T17:25:25;10.10;97.60
33476;DHT22;19814;48.224;11.422;2023-04-01T17:34:06;9.90;97.90
33476;DHT22;19814;48.224;11.422;2023-04-01T17:37:00;10.00;97.60
33476;DHT22;19814;48.224;11.422;2023-04-01T17:42:39;10.00;97.80
33476;DHT22;19814;48.224;11.422;2023-04-01T17:45:11;9.90;98.00
33476;DHT22;19814;48.224;11.422;2023-04-01T17:54:21;9.90;98.20
33476;DHT22;19814;48.224;11.422;2023-04-01T18:00:19;9.90;98.20
33476;DHT22;19814;48.224;11.422;2023-04-01T18:05:45;9.90;98.00
33476;DHT22;19814;48.224;11.422;2023-04-01T18:13:54;9.90;98.00
33476;DHT22;19814;48.224;11.422;2023-04-01T18:24:18;9.90;98.50
33476;DHT22;19814;48.224;11.422;2023-04-01T18:27:15;9.90;98.20
33476;DHT22;19814;48.224;11.422;2023-04-01T18:30:11;9.80;98.50
33476;DHT22;19814;48.224;11.422;2023-04-01T18:32:50;9.80;98.80
33476;DHT22;19814;48.224;11.422;2023-04-01T18:38:33;9.80;99.40
33476;DHT22;19814;48.224;11.422;2023-04-01T18:46:48;9.80;99.30
33476;DHT22;19814;48.224;11.422;2023-04-01T18:49:21;9.80;99.20
33476;DHT22;19814;48.224;11.422;2023-04-01T18:52:08;9.80;99.10
33476;DHT22;19814;48.224;11.422;2023-04-01T18:54:47;9.70;99.20
33476;DHT22;19814;48.224;11.422;2023-04-01T18:57:18;9.80;99.00
33476;DHT22;19814;48.224;11.422;2023-04-01T18:59:55;9.80;98.70
33476;DHT22;19814;48.224;11.422;2023-04-01T19:02:30;9.80;99.70
33476;DHT22;19814;48.224;11.422;2023-04-01T19:07:54;9.70;99.70
33476;DHT22;19814;48.224;11.422;2023-04-01T19:13:05;9.70;99.70
33476;DHT22;19814;48.224;11.422;2023-04-01T19:15:44;9.70;99.90
33476;DHT22;19814;48.224;11.422;2023-04-01T19:21:01;9.60;99.80
33476;DHT22;19814;48.224;11.422;2023-04-01T19:26:40;9.60;99.80
33476;DHT22;19814;48.224;11.422;2023-04-01T19:34:54;9.40;99.90
33476;DHT22;19814;48.224;11.422;2023-04-01T19:37:37;9.40;99.90
33476;DHT22;19814;48.224;11.422;2023-04-01T19:46:18;9.30;99.90
33476;DHT22;19814;48.224;11.422;2023-04-01T19:55:21;9.10;99.90
33476;DHT22;19814;48.224;11.422;2023-04-01T19:58:08;9.00;99.90
33476;DHT22;19814;48.224;11.422;2023-04-01T20:01:10;9.00;99.90
33476;DHT22;19814;48.224;11.422;2023-04-01T20:03:53;8.90;99.90
33476;DHT22;19814;48.224;11.422;2023-04-01T20:06:54;8.90;99.90
33476;DHT22;19814;48.224;11.422;2023-04-01T20:17:48;8.70;99.90
33476;DHT22;19814;48.224;11.422;2023-04-01T20:20:21;8.70;99.90
33476;DHT22;19814;48.224;11.422;2023-04-01T20:23:18;8.70;99.90
33476;DHT22;19814;48.224;11.422;2023-04-01T20:25:51;8.70;99.90
33476;DHT22;19814;48.224;11.422;2023-04-01T20:34:10;8.70;99.90
33476;DHT22;19814;48.224;11.422;2023-04-01T20:36:36;8.70;99.90
33476;DHT22;19814;48.224;11.422;2023-04-01T20:39:52;8.80;99.90
33476;DHT22;19814;48.224;11.422;2023-04-01T20:42:39;8.80;99.90
33476;DHT22;19814;48.224;11.422;2023-04-01T20:45:32;8.90;99.90
33476;DHT22;19814;48.224;11.422;2023-04-01T20:48:07;8.90;99.90
33476;DHT22;19814;48.224;11.422;2023-04-01T20:50:51;8.80;99.90
33476;DHT22;19814;48.224;11.422;2023-04-01T20:53:50;8.80;99.90
33476;DHT22;19814;48.224;11.422;2023-04-01T21:05:00;8.90;99.90
33476;DHT22;19814;48.224;11.422;2023-04-01T21:07:50;8.90;99.90
33476;DHT22;19814;48.224;11.422;2023-04-01T21:15:52;8.80;99.90
33476;DHT22;19814;48.224;11.422;2023-04-01T21:24:23;8.90;99.90
33476;DHT22;19814;48.224;11.422;2023-04-01T21:27:28;8.90;99.90
33476;DHT22;19814;48.224;11.422;2023-04-01T21:30:21;8.90;99.90
33476;DHT22;19814;48.224;11.422;2023-04-01T21:41:30;8.80;99.90
33476;DHT22;19814;48.224;11.422;2023-04-01T21:56:03;8.70;99.90
33476;DHT22;19814;48.224;11.422;2023-04-01T22:01:33;8.70;99.90
33476;DHT22;19814;48.224;11.422;2023-04-01T22:04:44;8.80;99.90
33476;DHT22;19814;48.224;11.422;2023-04-01T22:07:19;8.80;99.90
33476;DHT22;19814;48.224;11.422;2023-04-01T22:10:09;8.80;99.90
33476;DHT22;19814;48.224;11.422;2023-04-01T22:15:42;8.80;99.90
33476;DHT22;19814;48.224;11.422;2023-04-01T22:20:50;8.70;99.90
33476;DHT22;19814;48.224;11.422;2023-04-01T22:23:31;8.70;99.90
33476;DHT22;19814;48.224;11.422;2023-04-01T22:26:21;8.70;99.90
33476;DHT22;19814;48.224;11.422;2023-04-01T22:29:06;8.70;99.90
33476;DHT22;19814;48.224;11.422;2023-04-01T22:31:49;8.70;99.90
33476;DHT22;19814;48.224;11.422;2023-04-01T22:34:54;8.70;99.90
33476;DHT22;19814;48.224;11.422;2023-04-01T22:37:32;8.70;99.90
33476;DHT22;19814;48.224;11.422;2023-04-01T22:40:25;8.70;99.90
33476;DHT22;19814;48.224;11.422;2023-04-01T22:43:11;8.70;99.90
33476;DHT22;19814;48.224;11.422;2023-04-01T22:45:50;8.70;99.90
33476;DHT22;19814;48.224;11.422;2023-04-01T22:48:35;8.60;99.90
33476;DHT22;19814;48.224;11.422;2023-04-01T22:51:38;8.70;99.90
33476;DHT22;19814;48.224;11.422;2023-04-01T22:54:29;8.60;99.90
33476;DHT22;19814;48.224;11.422;2023-04-01T22:59:52;8.60;99.90
33476;DHT22;19814;48.224;11.422;2023-04-01T23:02:25;8.60;99.90
33476;DHT22;19814;48.224;11.422;2023-04-01T23:05:02;8.60;99.90
33476;DHT22;19814;48.224;11.422;2023-04-01T23:13:43;8.60;99.90
33476;DHT22;19814;48.224;11.422;2023-04-01T23:16:10;8.60;99.90
33476;DHT22;19814;48.224;11.422;2023-04-01T23:21:46;8.50;99.90
33476;DHT22;19814;48.224;11.422;2023-04-01T23:24:19;8.50;99.90
33476;DHT22;19814;48.224;11.422;2023-04-01T23:29:22;8.50;99.90
33476;DHT22;19814;48.224;11.422;2023-04-01T23:31:56;8.50;99.90
33476;DHT22;19814;48.224;11.422;2023-04-01T23:34:30;8.50;99.90
33476;DHT22;19814;48.224;11.422;2023-04-01T23:37:00;8.50;99.90
33476;DHT22;19814;48.224;11.422;2023-04-01T23:39:32;8.60;99.90
33476;DHT22;19814;48.224;11.422;2023-04-01T23:42:07;8.50;99.90
33476;DHT22;19814;48.224;11.422;2023-04-01T23:44:38;8.50;99.90
33476;DHT22;19814;48.224;11.422;2023-04-01T23:47:05;8.50;99.90
33476;DHT22;19814;48.224;11.422;2023-04-01T23:49:47;8.60;99.90
33476;DHT22;19814;48.224;11.422;2023-04-01T23:52:34;8.60;99.90
33476;DHT22;19814;48.224;11.422;2023-04-01T23:55:14;8.60;99.90
33476;DHT22;19814;48.224;11.422;2023-04-01T23:57:42;8.60;99.90
